CheckWX is a tool to help pilots better visualize weather data.  It is not intended as a substitute for an official pre-flight weather briefing.

09:31:36 UTC

KACY TAF
Atlantic City International Airport
Atlantic City, New Jersey, USA
KACY 180520Z 1806/1906 VRB02KT 3SM -SHRA OVC003 FM180900 00000KT 1SM BR BKN002 FM181400 VRB02KT 5SM BR VCSH BKN012 FM181600 18006KT P6SM BKN040 FM182000 20005KT P6SM SHRA VCTS BKN040CB FM190200 24005KT P6SM VCSH BKN040

Jun-18@
06:00 UTC

Jun-18 @ 06:00 UTC

Jun-18@
09:00 UTC

Jun-18 @ 09:00 UTC

KACY 180520Z 1806/1906 VRB02KT 3SM -SHRA OVC003

Expired

Wind
  • Variable at 2 KTS
Conditions
Light Rain
Cloud Levels
  • Overcast at 300' AGL

Jun-18@
09:00 UTC

Jun-18 @ 09:00 UTC

Jun-18@
14:00 UTC

Jun-18 @ 14:00 UTC

FM180900 00000KT 1SM BR BKN002

From

From Standard forecast or significant change

Conditions
Mist
Cloud Levels
  • Broken at 200' AGL

Jun-18@
14:00 UTC

Jun-18 @ 14:00 UTC

Jun-18@
16:00 UTC

Jun-18 @ 16:00 UTC

FM181400 VRB02KT 5SM BR VCSH BKN012

From

From Standard forecast or significant change

Wind
  • Variable at 2 KTS
Conditions
Mist
Cloud Levels
  • Broken at 1,200' AGL

Jun-18@
16:00 UTC

Jun-18 @ 16:00 UTC

Jun-18@
20:00 UTC

Jun-18 @ 20:00 UTC

FM181600 18006KT P6SM BKN040

From

From Standard forecast or significant change

Wind
  • 180° at 6 KTS
Cloud Levels
  • Broken at 4,000' AGL

Jun-18@
20:00 UTC

Jun-18 @ 20:00 UTC

Jun-19@
02:00 UTC

Jun-19 @ 02:00 UTC

FM182000 20005KT P6SM SHRA VCTS BKN040CB

From

From Standard forecast or significant change

Wind
  • 200° at 5 KTS
Conditions
Rain, Area Thunderstorm
Cloud Levels
  • Broken at 4,000' AGL

Jun-19@
02:00 UTC

Jun-19 @ 02:00 UTC

Jun-19@
06:00 UTC

Jun-19 @ 06:00 UTC

FM190200 24005KT P6SM VCSH BKN040

From

From Standard forecast or significant change

Wind
  • 240° at 5 KTS
Cloud Levels
  • Broken at 4,000' AGL